createdAt,value
2017-01-21T00:00:35.755Z,0
2017-01-21T00:01:16.343Z,0
2017-01-21T00:01:56.960Z,0
2017-01-21T00:02:37.625Z,0
2017-01-21T00:03:18.265Z,0
2017-01-21T00:03:58.916Z,0
2017-01-21T00:04:39.575Z,0
2017-01-21T00:05:20.223Z,0
2017-01-21T00:06:00.873Z,0
2017-01-21T00:06:41.451Z,0
2017-01-21T00:07:22.034Z,0
2017-01-21T00:08:02.622Z,0
2017-01-21T00:08:43.276Z,0
2017-01-21T00:09:23.836Z,0
2017-01-21T00:10:04.448Z,0
2017-01-21T00:10:45.035Z,0
2017-01-21T00:11:25.701Z,0
2017-01-21T00:12:06.337Z,0
2017-01-21T00:12:47.001Z,0
2017-01-21T00:13:27.651Z,0
2017-01-21T00:14:08.300Z,0
2017-01-21T00:14:48.954Z,0
2017-01-21T00:15:29.607Z,0
2017-01-21T00:16:10.156Z,0
2017-01-21T00:16:50.728Z,0
2017-01-21T00:17:31.331Z,0
2017-01-21T00:18:11.911Z,0
2017-01-21T00:18:52.572Z,0
2017-01-21T00:19:33.155Z,0
2017-01-21T00:20:13.849Z,0
2017-01-21T00:20:54.523Z,0
2017-01-21T00:21:35.175Z,0
2017-01-21T00:22:15.840Z,0
2017-01-21T00:22:56.482Z,0
2017-01-21T00:23:38.161Z,0
2017-01-21T00:24:18.812Z,0
2017-01-21T00:24:59.464Z,0
2017-01-21T00:25:40.121Z,0
2017-01-21T00:26:20.771Z,0
2017-01-21T00:27:01.426Z,0
2017-01-21T00:27:42.074Z,0
2017-01-21T00:28:23.763Z,0
2017-01-21T00:29:04.412Z,0
2017-01-21T00:29:45.068Z,0
2017-01-21T00:30:25.713Z,0
2017-01-21T00:31:06.369Z,0
2017-01-21T00:31:46.955Z,0
2017-01-21T00:32:27.635Z,0
2017-01-21T00:33:08.211Z,0
2017-01-21T00:33:48.885Z,0
2017-01-21T00:34:29.450Z,0
2017-01-21T00:35:10.130Z,0
2017-01-21T00:35:50.746Z,0
2017-01-21T00:36:31.390Z,0
2017-01-21T00:37:11.973Z,0
2017-01-21T00:37:52.643Z,0
2017-01-21T00:38:33.241Z,0
2017-01-21T00:39:13.899Z,0
2017-01-21T00:39:54.484Z,0
2017-01-21T00:40:35.164Z,0
2017-01-21T00:41:15.746Z,0
2017-01-21T00:41:56.405Z,0
2017-01-21T00:42:37.007Z,0
2017-01-21T00:43:17.670Z,0
2017-01-21T00:43:58.266Z,0
2017-01-21T00:44:38.903Z,0
2017-01-21T00:45:19.495Z,0
2017-01-21T00:46:01.101Z,0
2017-01-21T00:46:41.803Z,0
2017-01-21T00:47:22.448Z,0
2017-01-21T00:48:03.062Z,0
2017-01-21T00:48:43.773Z,0
2017-01-21T00:49:24.401Z,0
2017-01-21T00:50:05.064Z,0
2017-01-21T00:50:45.633Z,0
2017-01-21T00:51:26.220Z,0
2017-01-21T00:52:06.821Z,0
2017-01-21T00:52:47.462Z,0
2017-01-21T00:53:28.113Z,0
2017-01-21T00:54:08.783Z,0
2017-01-21T00:54:49.416Z,0
2017-01-21T00:55:30.093Z,0
2017-01-21T00:56:10.739Z,0
2017-01-21T00:56:51.389Z,0
2017-01-21T00:57:32.031Z,0
2017-01-21T00:58:12.695Z,0
2017-01-21T00:58:53.350Z,0
2017-01-21T00:59:34.001Z,0
2017-01-21T01:00:14.577Z,0
2017-01-21T01:00:55.307Z,0
2017-01-21T01:01:35.867Z,0
2017-01-21T01:02:16.476Z,0
2017-01-21T01:02:57.051Z,0
2017-01-21T01:03:37.713Z,0
2017-01-21T01:04:18.294Z,0
2017-01-21T01:04:59.946Z,0
2017-01-21T01:05:40.614Z,0
2017-01-21T01:06:21.341Z,0
2017-01-21T01:07:01.924Z,0
2017-01-21T01:07:42.514Z,0
2017-01-21T01:08:23.136Z,0
2017-01-21T01:09:03.749Z,0
2017-01-21T01:09:44.324Z,0
2017-01-21T01:10:24.937Z,0
2017-01-21T01:11:05.609Z,0
2017-01-21T01:11:46.272Z,0
2017-01-21T01:12:26.916Z,0
2017-01-21T01:13:08.596Z,0
2017-01-21T01:13:49.247Z,0
2017-01-21T01:14:29.897Z,0
2017-01-21T01:15:10.552Z,0
2017-01-21T01:15:51.202Z,0
2017-01-21T01:16:31.856Z,0
2017-01-21T01:17:12.509Z,0
2017-01-21T01:17:53.162Z,0
2017-01-21T01:18:33.808Z,0
2017-01-21T01:19:14.456Z,0
2017-01-21T01:19:55.122Z,0
2017-01-21T01:20:35.796Z,0
2017-01-21T01:21:16.451Z,0
2017-01-21T01:21:57.113Z,0
2017-01-21T01:22:37.773Z,0
2017-01-21T01:23:18.411Z,0
2017-01-21T01:23:59.066Z,0
2017-01-21T01:24:39.720Z,0
2017-01-21T01:25:20.369Z,0
2017-01-21T01:26:01.023Z,0
2017-01-21T01:26:41.677Z,0
2017-01-21T01:27:22.327Z,0
2017-01-21T01:28:02.997Z,0
2017-01-21T01:28:43.645Z,0
2017-01-21T01:29:24.290Z,0
2017-01-21T01:30:04.940Z,0
2017-01-21T01:30:45.593Z,0
2017-01-21T01:31:26.244Z,0
2017-01-21T01:32:06.900Z,0
2017-01-21T01:32:47.554Z,0
2017-01-21T01:33:28.203Z,0
2017-01-21T01:34:08.860Z,0
2017-01-21T01:34:49.510Z,0
2017-01-21T01:35:30.163Z,0
2017-01-21T01:36:10.816Z,0
2017-01-21T01:36:51.371Z,0
2017-01-21T01:37:32.034Z,0
2017-01-21T01:38:12.688Z,0
2017-01-21T01:38:53.251Z,0
2017-01-21T01:39:33.893Z,0
2017-01-21T01:40:14.528Z,0
2017-01-21T01:40:55.097Z,0
2017-01-21T01:41:35.734Z,0
2017-01-21T01:42:16.385Z,0
2017-01-21T01:42:57.062Z,0
2017-01-21T01:43:37.717Z,0
2017-01-21T01:44:18.347Z,0
2017-01-21T01:44:58.999Z,0
2017-01-21T01:45:39.650Z,0
2017-01-21T01:46:20.303Z,0
2017-01-21T01:47:00.955Z,0
2017-01-21T01:47:41.622Z,0
2017-01-21T01:48:22.289Z,0
2017-01-21T01:49:02.911Z,0
2017-01-21T01:49:43.567Z,0
2017-01-21T01:50:24.222Z,0
2017-01-21T01:51:04.871Z,0
2017-01-21T01:51:45.525Z,0
2017-01-21T01:52:26.179Z,0
2017-01-21T01:53:06.830Z,0
2017-01-21T01:53:47.503Z,0
2017-01-21T01:54:28.137Z,0
2017-01-21T01:55:08.793Z,0
2017-01-21T01:55:49.443Z,0
2017-01-21T01:56:30.107Z,0
2017-01-21T01:57:10.683Z,0
2017-01-21T01:57:51.354Z,0
2017-01-21T01:58:31.948Z,0
2017-01-21T01:59:12.602Z,0
2017-01-21T01:59:53.157Z,0
2017-01-21T02:00:33.765Z,0
2017-01-21T02:01:14.378Z,0
2017-01-21T02:01:55.011Z,0
2017-01-21T02:02:35.665Z,0
2017-01-21T02:03:16.323Z,0
2017-01-21T02:03:56.969Z,0
2017-01-21T02:04:37.622Z,0
2017-01-21T02:05:18.277Z,0
2017-01-21T02:05:58.929Z,0
2017-01-21T02:06:39.583Z,0
2017-01-21T02:07:20.163Z,0
2017-01-21T02:08:00.785Z,0
2017-01-21T02:08:41.437Z,0
2017-01-21T02:09:22.007Z,0
2017-01-21T02:10:02.646Z,0
2017-01-21T02:10:43.291Z,0
2017-01-21T02:11:23.862Z,0
2017-01-21T02:12:04.508Z,0
2017-01-21T02:12:45.150Z,0
2017-01-21T02:13:25.808Z,0
2017-01-21T02:14:06.458Z,0
2017-01-21T02:14:47.118Z,0
2017-01-21T02:15:27.769Z,0
2017-01-21T02:16:08.428Z,0
2017-01-21T02:16:49.077Z,0
2017-01-21T02:17:29.721Z,0
2017-01-21T02:18:10.382Z,0
2017-01-21T02:18:51.025Z,0
2017-01-21T02:19:31.686Z,0
2017-01-21T02:20:12.335Z,0
2017-01-21T02:20:52.992Z,0
2017-01-21T02:21:33.639Z,0
2017-01-21T02:22:14.298Z,0
2017-01-21T02:22:54.940Z,0
2017-01-21T02:23:35.605Z,0
2017-01-21T02:24:16.257Z,0
2017-01-21T02:24:56.932Z,0
2017-01-21T02:25:37.565Z,0
2017-01-21T02:26:18.215Z,0
2017-01-21T02:26:58.775Z,0
2017-01-21T02:27:39.390Z,0
2017-01-21T02:28:20.068Z,0
2017-01-21T02:29:00.728Z,0
2017-01-21T02:29:41.294Z,0
2017-01-21T02:30:21.906Z,0
2017-01-21T02:31:02.579Z,0
2017-01-21T02:31:43.234Z,0
2017-01-21T02:32:23.890Z,0
2017-01-21T02:33:04.540Z,0
2017-01-21T02:33:45.199Z,0
2017-01-21T02:34:25.777Z,0
2017-01-21T02:35:06.402Z,0
2017-01-21T02:35:47.047Z,0
2017-01-21T02:36:27.698Z,0
2017-01-21T02:37:08.284Z,0
2017-01-21T02:37:48.949Z,0
2017-01-21T02:38:29.555Z,100
2017-01-21T02:39:10.210Z,0
2017-01-21T02:39:50.777Z,0
2017-01-21T02:40:31.391Z,0
2017-01-21T02:41:11.970Z,0
2017-01-21T02:41:52.616Z,0
2017-01-21T02:42:33.194Z,0
2017-01-21T02:43:13.789Z,0
2017-01-21T02:43:54.372Z,0
2017-01-21T02:44:35.027Z,0
2017-01-21T02:45:15.588Z,0
2017-01-21T02:45:56.185Z,0
2017-01-21T02:46:36.784Z,0
2017-01-21T02:47:17.436Z,0
2017-01-21T02:47:57.999Z,0
2017-01-21T02:48:38.586Z,0
2017-01-21T02:49:19.193Z,0
2017-01-21T02:49:59.855Z,0
2017-01-21T02:50:40.428Z,0
2017-01-21T02:51:21.088Z,0
2017-01-21T02:52:01.695Z,0
2017-01-21T02:52:42.346Z,0
2017-01-21T02:53:22.995Z,0
2017-01-21T02:54:03.650Z,0
2017-01-21T02:54:44.306Z,0
2017-01-21T02:55:24.966Z,0
2017-01-21T02:56:05.617Z,0
2017-01-21T02:56:46.273Z,0
2017-01-21T02:57:26.923Z,0
2017-01-21T02:58:07.498Z,0
2017-01-21T02:58:48.118Z,0
2017-01-21T02:59:28.777Z,0
2017-01-21T03:00:09.390Z,0
2017-01-21T03:00:49.979Z,0
2017-01-21T03:01:30.543Z,0
2017-01-21T03:02:11.192Z,0
2017-01-21T03:02:51.760Z,0
2017-01-21T03:03:32.445Z,0
2017-01-21T03:04:13.035Z,0
2017-01-21T03:04:53.687Z,0
2017-01-21T03:05:34.259Z,0
2017-01-21T03:06:14.852Z,0
2017-01-21T03:06:55.444Z,96
2017-01-21T03:07:36.100Z,96
2017-01-21T03:08:16.760Z,0
2017-01-21T03:08:57.407Z,0
2017-01-21T03:09:38.053Z,0
2017-01-21T03:10:18.706Z,0
2017-01-21T03:10:59.366Z,0
2017-01-21T03:11:40.017Z,0
2017-01-21T03:12:20.676Z,0
2017-01-21T03:13:01.321Z,0
2017-01-21T03:13:41.977Z,0
2017-01-21T03:14:22.632Z,0
2017-01-21T03:15:03.283Z,0
2017-01-21T03:15:43.939Z,0
2017-01-21T03:16:24.581Z,0
2017-01-21T03:17:05.239Z,0
2017-01-21T03:17:45.894Z,0
2017-01-21T03:18:26.543Z,0
2017-01-21T03:19:07.206Z,0
2017-01-21T03:19:47.854Z,0
2017-01-21T03:20:28.511Z,0
2017-01-21T03:21:09.161Z,0
2017-01-21T03:21:49.812Z,0
2017-01-21T03:22:30.466Z,0
2017-01-21T03:23:11.124Z,0
2017-01-21T03:23:51.766Z,0
2017-01-21T03:24:32.415Z,0
2017-01-21T03:25:13.082Z,0
2017-01-21T03:25:53.727Z,0
2017-01-21T03:26:34.380Z,0
2017-01-21T03:27:15.034Z,0
2017-01-21T03:27:55.687Z,0
2017-01-21T03:28:36.340Z,0
2017-01-21T03:29:17.002Z,0
2017-01-21T03:29:57.653Z,0
2017-01-21T03:30:38.299Z,0
2017-01-21T03:31:18.951Z,0
2017-01-21T03:31:59.530Z,0
2017-01-21T03:32:40.152Z,0
2017-01-21T03:33:20.808Z,0
2017-01-21T03:34:01.373Z,0
2017-01-21T03:34:42.011Z,0
2017-01-21T03:35:22.670Z,0
2017-01-21T03:36:03.271Z,0
2017-01-21T03:36:43.860Z,0
2017-01-21T03:37:24.523Z,0
2017-01-21T03:38:05.103Z,0
2017-01-21T03:38:45.720Z,0
2017-01-21T03:39:26.380Z,0
2017-01-21T03:40:06.942Z,0
2017-01-21T03:40:47.588Z,0
2017-01-21T03:41:28.238Z,0
2017-01-21T03:42:08.802Z,0
2017-01-21T03:42:49.435Z,0
2017-01-21T03:43:30.088Z,0
2017-01-21T03:44:10.742Z,0
2017-01-21T03:44:51.403Z,0
2017-01-21T03:45:32.046Z,0
2017-01-21T03:46:12.706Z,0
2017-01-21T03:46:59.848Z,0
2017-01-21T03:47:40.503Z,0
2017-01-21T03:48:21.157Z,0
2017-01-21T03:49:01.804Z,0
2017-01-21T03:49:43.489Z,0
2017-01-21T03:50:26.094Z,0
2017-01-21T03:51:06.736Z,0
2017-01-21T03:51:47.388Z,0
2017-01-21T03:52:28.041Z,0
2017-01-21T03:53:08.702Z,0
2017-01-21T03:53:49.355Z,0
2017-01-21T03:54:35.835Z,0
2017-01-21T03:55:18.563Z,0
2017-01-21T03:55:59.186Z,0
2017-01-21T03:56:39.846Z,0
2017-01-21T03:57:20.404Z,0
2017-01-21T03:58:05.708Z,0
2017-01-21T03:58:46.309Z,0
2017-01-21T03:59:26.960Z,0
2017-01-21T04:00:07.528Z,0
2017-01-21T04:00:49.188Z,0
2017-01-21T04:01:30.763Z,0
2017-01-21T04:02:11.428Z,0
2017-01-21T04:02:52.019Z,0
2017-01-21T04:03:32.628Z,0
2017-01-21T04:04:13.271Z,0
2017-01-21T04:04:53.829Z,0
2017-01-21T04:05:34.468Z,0
2017-01-21T04:06:15.130Z,0
2017-01-21T04:06:55.701Z,0
2017-01-21T04:07:37.364Z,0
2017-01-21T04:08:18.007Z,0
2017-01-21T04:08:58.670Z,0
2017-01-21T04:09:41.269Z,0
2017-01-21T04:10:22.938Z,0
2017-01-21T04:11:03.596Z,0
2017-01-21T04:11:44.242Z,0
2017-01-21T04:12:24.894Z,0
2017-01-21T04:13:06.477Z,0
2017-01-21T04:13:47.124Z,0
2017-01-21T04:14:27.770Z,0
2017-01-21T04:15:08.424Z,0
2017-01-21T04:15:49.078Z,0
2017-01-21T04:16:29.740Z,0
2017-01-21T04:17:11.424Z,0
2017-01-21T04:17:52.008Z,0
2017-01-21T04:18:33.588Z,0
2017-01-21T04:19:14.188Z,0
2017-01-21T04:19:54.850Z,0
2017-01-21T04:20:35.410Z,0
2017-01-21T04:21:16.006Z,0
2017-01-21T04:21:57.616Z,0
2017-01-21T04:22:38.278Z,0
2017-01-21T04:23:18.878Z,0
2017-01-21T04:24:04.248Z,0
2017-01-21T04:24:45.878Z,0
2017-01-21T04:25:26.539Z,0
2017-01-21T04:26:07.092Z,0
2017-01-21T04:26:48.720Z,0
2017-01-21T04:27:30.327Z,0
2017-01-21T04:28:12.005Z,0
2017-01-21T04:28:52.662Z,0
2017-01-21T04:29:34.229Z,0
2017-01-21T04:30:15.904Z,0
2017-01-21T04:30:56.557Z,0
2017-01-21T04:31:38.227Z,0
2017-01-21T04:32:18.789Z,0
2017-01-21T04:32:59.388Z,0
2017-01-21T04:33:39.991Z,0
2017-01-21T04:34:20.646Z,0
2017-01-21T04:35:01.229Z,0
2017-01-21T04:35:53.691Z,0
2017-01-21T04:36:34.282Z,0
2017-01-21T04:37:15.955Z,0
2017-01-21T04:37:57.635Z,0
2017-01-21T04:38:40.252Z,0
2017-01-21T04:39:22.927Z,0
2017-01-21T04:40:04.527Z,0
2017-01-21T04:40:49.870Z,0
2017-01-21T04:41:31.544Z,0
2017-01-21T04:42:12.195Z,0
2017-01-21T04:42:52.854Z,0
2017-01-21T04:43:33.502Z,0
2017-01-21T04:44:14.158Z,0
2017-01-21T04:44:55.829Z,0
2017-01-21T04:45:36.487Z,0
2017-01-21T04:46:19.105Z,0
2017-01-21T04:47:00.765Z,0
2017-01-21T04:47:46.334Z,0
2017-01-21T04:48:27.996Z,0
2017-01-21T04:49:08.657Z,0
2017-01-21T04:49:51.260Z,0
2017-01-21T04:50:31.908Z,0
2017-01-21T04:51:13.595Z,0
2017-01-21T04:51:54.243Z,0
2017-01-21T04:52:34.894Z,0
2017-01-21T04:53:15.544Z,0
2017-01-21T04:53:56.206Z,0
2017-01-21T04:54:38.905Z,0
2017-01-21T04:55:20.576Z,0
2017-01-21T04:56:02.275Z,0
2017-01-21T04:56:42.899Z,0
2017-01-21T04:57:23.481Z,0
2017-01-21T04:58:04.080Z,0
2017-01-21T04:58:44.656Z,0
2017-01-21T04:59:25.307Z,0
2017-01-21T05:00:05.889Z,0
2017-01-21T05:00:47.483Z,0
2017-01-21T05:01:28.093Z,0
2017-01-21T05:02:08.744Z,0
2017-01-21T05:02:49.523Z,0
2017-01-21T05:03:35.886Z,0
2017-01-21T05:04:16.537Z,0
2017-01-21T05:04:59.135Z,0
2017-01-21T05:05:39.790Z,0
2017-01-21T05:06:20.442Z,0
2017-01-21T05:07:03.157Z,0
2017-01-21T05:07:48.306Z,0
2017-01-21T05:08:28.954Z,0
2017-01-21T05:09:11.554Z,0
2017-01-21T05:09:54.155Z,0
2017-01-21T05:10:34.802Z,0
2017-01-21T05:11:15.456Z,0
2017-01-21T05:12:02.893Z,0
2017-01-21T05:12:48.335Z,0
2017-01-21T05:13:28.998Z,0
2017-01-21T05:14:10.663Z,0
2017-01-21T05:14:51.331Z,0
2017-01-21T05:15:31.970Z,0
2017-01-21T05:16:12.621Z,0
2017-01-21T05:16:53.273Z,0
2017-01-21T05:17:33.927Z,0
2017-01-21T05:18:14.581Z,0
2017-01-21T05:18:55.232Z,0
2017-01-21T05:19:36.817Z,0
2017-01-21T05:20:17.460Z,0
2017-01-21T05:21:00.063Z,0
2017-01-21T05:21:46.343Z,0
2017-01-21T05:22:28.021Z,0
2017-01-21T05:23:10.627Z,0
2017-01-21T05:23:52.309Z,0
2017-01-21T05:24:32.949Z,0
2017-01-21T05:25:13.609Z,0
2017-01-21T05:25:54.252Z,0
2017-01-21T05:26:34.910Z,0
2017-01-21T05:27:20.371Z,0
2017-01-21T05:28:01.038Z,0
2017-01-21T05:28:46.291Z,0
2017-01-21T05:29:26.933Z,0
2017-01-21T05:30:07.590Z,0
2017-01-21T05:30:49.262Z,0
2017-01-21T05:31:31.878Z,0
2017-01-21T05:32:14.478Z,0
2017-01-21T05:32:55.119Z,0
2017-01-21T05:33:35.779Z,0
2017-01-21T05:34:21.334Z,0
2017-01-21T05:35:01.990Z,0
2017-01-21T05:35:42.548Z,0
2017-01-21T05:36:23.207Z,0
2017-01-21T05:37:03.848Z,0
2017-01-21T05:37:44.512Z,0
2017-01-21T05:38:25.150Z,0
2017-01-21T05:39:06.829Z,0
2017-01-21T05:39:47.488Z,0
2017-01-21T05:40:29.164Z,0
2017-01-21T05:41:09.825Z,0
2017-01-21T05:41:50.488Z,0
2017-01-21T05:42:31.128Z,0
2017-01-21T05:43:11.781Z,0
2017-01-21T05:43:52.424Z,0
2017-01-21T05:44:33.090Z,0
2017-01-21T05:45:15.697Z,0
2017-01-21T05:45:56.340Z,0
2017-01-21T05:46:38.938Z,0
2017-01-21T05:47:19.510Z,0
2017-01-21T05:48:00.098Z,0
2017-01-21T05:48:40.678Z,0
2017-01-21T05:49:22.365Z,0
2017-01-21T05:50:02.946Z,0
2017-01-21T05:50:43.507Z,0
2017-01-21T05:51:25.133Z,0
2017-01-21T05:52:10.405Z,0
2017-01-21T05:52:51.978Z,0
2017-01-21T05:53:32.625Z,0
2017-01-21T05:54:13.287Z,0
2017-01-21T05:54:53.936Z,0
2017-01-21T05:55:34.602Z,0
2017-01-21T05:56:15.242Z,0
2017-01-21T05:56:56.925Z,0
2017-01-21T05:57:37.496Z,0
2017-01-21T05:58:18.121Z,0
2017-01-21T05:58:58.790Z,0
2017-01-21T05:59:39.354Z,0
2017-01-21T06:00:19.971Z,0
2017-01-21T06:01:00.541Z,0
2017-01-21T06:01:41.093Z,0
2017-01-21T06:02:21.720Z,0
2017-01-21T06:03:02.390Z,0
2017-01-21T06:03:42.954Z,0
2017-01-21T06:04:23.536Z,0
2017-01-21T06:05:05.153Z,0
2017-01-21T06:05:45.826Z,0
2017-01-21T06:06:26.396Z,0
2017-01-21T06:07:08.001Z,0
2017-01-21T06:07:48.597Z,0
2017-01-21T06:08:29.169Z,0
2017-01-21T06:09:09.787Z,0
2017-01-21T06:09:50.461Z,0
2017-01-21T06:10:31.019Z,0
2017-01-21T06:11:11.667Z,0
2017-01-21T06:11:53.334Z,0
2017-01-21T06:12:33.914Z,0
2017-01-21T06:13:14.532Z,0
2017-01-21T06:13:55.191Z,0
2017-01-21T06:14:35.761Z,0
2017-01-21T06:15:16.368Z,0
2017-01-21T06:15:57.965Z,0
2017-01-21T06:16:38.621Z,0
2017-01-21T06:17:19.182Z,0
2017-01-21T06:18:00.855Z,0
2017-01-21T06:18:42.527Z,0
2017-01-21T06:19:23.089Z,0
2017-01-21T06:20:03.664Z,0
2017-01-21T06:20:44.277Z,0
2017-01-21T06:21:24.858Z,0
2017-01-21T06:22:06.513Z,0
2017-01-21T06:22:48.186Z,0
2017-01-21T06:23:29.846Z,0
2017-01-21T06:24:10.519Z,0
2017-01-21T06:24:52.186Z,0
2017-01-21T06:25:32.848Z,0
2017-01-21T06:26:13.501Z,0
2017-01-21T06:26:54.159Z,0
2017-01-21T06:27:34.806Z,0
2017-01-21T06:28:17.404Z,0
2017-01-21T06:28:58.052Z,0
2017-01-21T06:29:39.633Z,0
2017-01-21T06:30:20.285Z,0
2017-01-21T06:31:00.935Z,0
2017-01-21T06:31:42.617Z,0
2017-01-21T06:32:24.289Z,0
2017-01-21T06:33:04.946Z,0
2017-01-21T06:33:45.599Z,0
2017-01-21T06:34:27.271Z,0
2017-01-21T06:35:07.928Z,0
2017-01-21T06:35:48.578Z,0
2017-01-21T06:36:30.157Z,0
2017-01-21T06:37:11.827Z,0
2017-01-21T06:37:54.434Z,0
2017-01-21T06:38:35.083Z,0
2017-01-21T06:39:15.731Z,0
2017-01-21T06:39:57.415Z,0
2017-01-21T06:40:38.061Z,0
2017-01-21T06:41:18.721Z,0
2017-01-21T06:42:04.392Z,0
2017-01-21T06:42:44.958Z,0
2017-01-21T06:43:25.594Z,0
2017-01-21T06:44:06.247Z,0
2017-01-21T06:44:46.820Z,0
2017-01-21T06:45:27.460Z,0
2017-01-21T06:46:08.098Z,0
2017-01-21T06:46:48.669Z,0
2017-01-21T06:47:29.301Z,4
2017-01-21T06:48:09.959Z,4
2017-01-21T06:48:52.679Z,4
2017-01-21T06:49:33.313Z,4
2017-01-21T06:50:13.965Z,0
2017-01-21T06:50:54.624Z,4
2017-01-21T06:51:35.271Z,4
2017-01-21T06:52:15.922Z,4
2017-01-21T06:52:56.576Z,88
2017-01-21T06:53:37.171Z,4
2017-01-21T06:54:17.860Z,4
2017-01-21T06:54:58.537Z,8
2017-01-21T06:55:39.189Z,4
2017-01-21T06:56:19.780Z,8
2017-01-21T06:57:00.464Z,8
2017-01-21T06:57:42.072Z,8
2017-01-21T06:58:22.716Z,12
2017-01-21T06:59:03.283Z,12
2017-01-21T06:59:43.896Z,8
2017-01-21T07:00:25.501Z,16
2017-01-21T07:01:06.148Z,16
2017-01-21T07:01:46.720Z,16
2017-01-21T07:02:27.288Z,16
2017-01-21T07:03:07.920Z,16
2017-01-21T07:03:48.468Z,20
2017-01-21T07:04:29.051Z,24
2017-01-21T07:05:09.659Z,28
2017-01-21T07:05:50.313Z,28
2017-01-21T07:06:30.890Z,32
2017-01-21T07:07:11.587Z,32
2017-01-21T07:07:52.273Z,40
2017-01-21T07:08:32.849Z,40
2017-01-21T07:09:13.488Z,44
2017-01-21T07:09:54.121Z,48
2017-01-21T07:10:34.700Z,52
2017-01-21T07:11:16.350Z,56
2017-01-21T07:11:57.009Z,64
2017-01-21T07:12:37.587Z,68
2017-01-21T07:13:18.206Z,76
2017-01-21T07:13:58.874Z,80
2017-01-21T07:14:39.513Z,88
2017-01-21T07:15:20.171Z,96
2017-01-21T07:16:00.831Z,100
2017-01-21T07:16:41.488Z,108
2017-01-21T07:17:22.127Z,116
2017-01-21T07:18:02.778Z,124
2017-01-21T07:18:43.456Z,132
2017-01-21T07:19:24.200Z,140
2017-01-21T07:20:04.899Z,148
2017-01-21T07:20:46.523Z,160
2017-01-21T07:21:27.179Z,172
2017-01-21T07:22:07.833Z,180
2017-01-21T07:22:48.505Z,192
2017-01-21T07:23:29.153Z,208
2017-01-21T07:24:10.801Z,216
2017-01-21T07:24:51.456Z,232
2017-01-21T07:25:32.113Z,244
2017-01-21T07:26:12.781Z,256
2017-01-21T07:26:53.413Z,268
2017-01-21T07:27:34.065Z,280
2017-01-21T07:28:14.753Z,296
2017-01-21T07:28:55.288Z,308
2017-01-21T07:29:35.952Z,328
2017-01-21T07:30:16.629Z,344
2017-01-21T07:30:57.255Z,356
2017-01-21T07:31:38.021Z,368
2017-01-21T07:32:18.966Z,388
2017-01-21T07:32:59.605Z,400
2017-01-21T07:33:40.256Z,420
2017-01-21T07:34:20.906Z,432
2017-01-21T07:35:01.585Z,452
2017-01-21T07:35:42.205Z,468
2017-01-21T07:36:22.864Z,488
2017-01-21T07:37:03.519Z,504
2017-01-21T07:37:44.103Z,524
2017-01-21T07:38:24.791Z,544
2017-01-21T07:39:05.369Z,560
2017-01-21T07:39:46.024Z,580
2017-01-21T07:40:26.597Z,600
2017-01-21T07:41:07.177Z,620
2017-01-21T07:41:48.828Z,640
2017-01-21T07:42:29.465Z,660
2017-01-21T07:43:10.109Z,680
2017-01-21T07:43:50.784Z,700
2017-01-21T07:44:31.412Z,720
2017-01-21T07:45:11.997Z,740
2017-01-21T07:45:52.559Z,760
2017-01-21T07:46:33.164Z,776
2017-01-21T07:47:13.925Z,796
2017-01-21T07:47:54.503Z,820
2017-01-21T07:48:35.244Z,844
2017-01-21T07:49:15.980Z,864
2017-01-21T07:49:56.572Z,888
2017-01-21T07:50:37.289Z,908
2017-01-21T07:51:18.043Z,932
2017-01-21T07:51:58.616Z,952
2017-01-21T07:52:40.398Z,976
2017-01-21T07:53:21.128Z,1000
2017-01-21T07:54:01.701Z,1020
2017-01-21T07:54:42.304Z,1040
2017-01-21T07:55:23.010Z,1124
2017-01-21T07:56:03.739Z,1144
2017-01-21T07:56:44.329Z,1096
2017-01-21T07:57:25.121Z,1120
2017-01-21T07:58:05.810Z,1140
2017-01-21T07:58:47.592Z,1164
2017-01-21T07:59:28.337Z,1180
2017-01-21T08:00:09.091Z,1196
2017-01-21T08:00:49.856Z,1216
2017-01-21T08:01:30.607Z,1232
2017-01-21T08:02:11.363Z,1252
2017-01-21T08:02:51.937Z,1272
2017-01-21T08:03:32.558Z,1288
2017-01-21T08:04:13.213Z,1312
2017-01-21T08:04:53.834Z,1328
2017-01-21T08:05:34.441Z,1344
2017-01-21T08:06:15.176Z,1368
2017-01-21T08:06:55.830Z,1388
2017-01-21T08:07:37.543Z,1408
2017-01-21T08:08:18.151Z,1428
2017-01-21T08:08:58.712Z,1444
2017-01-21T08:09:39.329Z,1464
2017-01-21T08:10:19.965Z,1484
2017-01-21T08:11:00.657Z,1504
2017-01-21T08:11:41.265Z,1524
2017-01-21T08:12:21.952Z,1548
2017-01-21T08:13:02.616Z,1568
2017-01-21T08:13:43.278Z,1584
2017-01-21T08:14:23.945Z,1608
2017-01-21T08:15:04.587Z,1624
2017-01-21T08:15:45.229Z,1640
2017-01-21T08:16:25.892Z,1656
2017-01-21T08:17:07.465Z,1672
2017-01-21T08:17:48.109Z,1688
2017-01-21T08:18:28.764Z,1704
2017-01-21T08:19:09.327Z,1724
2017-01-21T08:19:49.976Z,1740
2017-01-21T08:20:30.627Z,1756
2017-01-21T08:21:11.180Z,1776
2017-01-21T08:21:51.829Z,1792
2017-01-21T08:22:32.577Z,1812
2017-01-21T08:23:13.133Z,1816
2017-01-21T08:23:53.736Z,1836
2017-01-21T08:24:34.328Z,1924
2017-01-21T08:25:14.983Z,1872
2017-01-21T08:25:55.545Z,1888
2017-01-21T08:26:36.123Z,1904
2017-01-21T08:27:16.748Z,1920
2017-01-21T08:27:57.397Z,1940
2017-01-21T08:28:38.050Z,1952
2017-01-21T08:29:19.731Z,1972
2017-01-21T08:30:01.395Z,1984
2017-01-21T08:30:42.055Z,2004
2017-01-21T08:31:22.709Z,2016
2017-01-21T08:32:09.299Z,2032
2017-01-21T08:32:49.859Z,2068
2017-01-21T08:33:30.421Z,2092
2017-01-21T08:34:15.862Z,2108
2017-01-21T08:34:56.426Z,2124
2017-01-21T08:35:38.091Z,2140
2017-01-21T08:36:18.734Z,2152
2017-01-21T08:36:59.314Z,2168
2017-01-21T08:37:44.548Z,2180
2017-01-21T08:38:25.202Z,2196
2017-01-21T08:39:05.869Z,2208
2017-01-21T08:39:53.365Z,2224
2017-01-21T08:40:35.929Z,2232
2017-01-21T08:41:18.567Z,2240
2017-01-21T08:42:01.162Z,2248
2017-01-21T08:42:41.738Z,2260
2017-01-21T08:43:23.340Z,2272
2017-01-21T08:44:09.565Z,2288
2017-01-21T08:45:05.791Z,2304
2017-01-21T08:45:46.372Z,2316
2017-01-21T08:46:28.990Z,2328
2017-01-21T08:47:21.574Z,2344
2017-01-21T08:48:03.251Z,2360
2017-01-21T08:48:43.825Z,2364
2017-01-21T08:49:24.465Z,2368
2017-01-21T08:50:09.854Z,2380
2017-01-21T08:50:50.429Z,2460
2017-01-21T08:51:36.553Z,2472
2017-01-21T08:52:22.836Z,2416
2017-01-21T08:53:03.399Z,2432
2017-01-21T08:53:45.055Z,2520
2017-01-21T08:54:25.723Z,2532
2017-01-21T08:55:06.314Z,2476
2017-01-21T08:56:03.863Z,2492
2017-01-21T08:56:44.361Z,2504
2017-01-21T08:57:30.851Z,2524
2017-01-21T08:58:11.416Z,2532
2017-01-21T08:58:53.979Z,2552
2017-01-21T08:59:34.552Z,2564
2017-01-21T09:00:15.103Z,2576
2017-01-21T09:01:00.567Z,2588
2017-01-21T09:01:41.227Z,2604
2017-01-21T09:02:21.779Z,2608
2017-01-21T09:03:02.431Z,2616
2017-01-21T09:03:43.083Z,2624
2017-01-21T09:04:23.635Z,2632
2017-01-21T09:05:04.232Z,2640
2017-01-21T09:05:44.839Z,2640
2017-01-21T09:06:25.492Z,2648
2017-01-21T09:07:06.040Z,2660
2017-01-21T09:07:46.627Z,2664
2017-01-21T09:08:27.212Z,2676
2017-01-21T09:09:07.873Z,2680
2017-01-21T09:09:48.546Z,2680
2017-01-21T09:10:30.241Z,2696
2017-01-21T09:11:17.635Z,2696
2017-01-21T09:12:00.237Z,2712
2017-01-21T09:12:40.894Z,2712
2017-01-21T09:13:21.608Z,2724
2017-01-21T09:14:02.296Z,2728
2017-01-21T09:14:44.898Z,2732
2017-01-21T09:15:27.492Z,2744
2017-01-21T09:16:09.065Z,2752
2017-01-21T09:16:49.631Z,2764
2017-01-21T09:17:30.263Z,2764
2017-01-21T09:18:10.923Z,2768
2017-01-21T09:18:52.507Z,2776
2017-01-21T09:19:33.142Z,2780
2017-01-21T09:20:13.802Z,2796
2017-01-21T09:20:54.456Z,2812
2017-01-21T09:21:35.096Z,2816
2017-01-21T09:22:15.829Z,2824
2017-01-21T09:22:56.415Z,2832
2017-01-21T09:23:37.068Z,2844
2017-01-21T09:24:17.692Z,2848
2017-01-21T09:24:58.305Z,2856
2017-01-21T09:25:38.921Z,2860
2017-01-21T09:26:19.578Z,2868
2017-01-21T09:27:00.159Z,2868
2017-01-21T09:27:40.840Z,2880
2017-01-21T09:28:22.490Z,2888
2017-01-21T09:29:03.107Z,2896
2017-01-21T09:29:43.658Z,2900
2017-01-21T09:30:24.282Z,2908
2017-01-21T09:31:04.962Z,2920
2017-01-21T09:31:45.619Z,2920
2017-01-21T09:32:26.168Z,2932
2017-01-21T09:33:06.772Z,2940
2017-01-21T09:33:47.355Z,2948
2017-01-21T09:34:28.023Z,2948
2017-01-21T09:35:08.593Z,2956
2017-01-21T09:35:49.319Z,2960
2017-01-21T09:36:30.278Z,2976
2017-01-21T09:37:11.723Z,2984
2017-01-21T09:37:53.020Z,2996
2017-01-21T09:38:35.114Z,3000
2017-01-21T09:39:15.761Z,3012
2017-01-21T09:39:56.419Z,3020
2017-01-21T09:40:37.071Z,3028
2017-01-21T09:41:18.270Z,3036
2017-01-21T09:41:58.880Z,3036
2017-01-21T09:42:39.736Z,3052
2017-01-21T09:43:20.399Z,3068
2017-01-21T09:44:02.082Z,3104
2017-01-21T09:44:42.799Z,3096
2017-01-21T09:45:24.410Z,3108
2017-01-21T09:46:05.000Z,3124
2017-01-21T09:46:45.736Z,3136
2017-01-21T09:47:26.620Z,3144
2017-01-21T09:48:07.530Z,3156
2017-01-21T09:48:48.177Z,3168
2017-01-21T09:49:28.836Z,3192
2017-01-21T09:50:09.488Z,3200
2017-01-21T09:50:50.141Z,3208